sensor_id;sensor_type;location;lat;lon;timestamp;P1;durP1;ratioP1;P2;durP2;ratioP2
75766;SDS011;64378;55.596;13.014;2022-12-18T00:01:14;28.93;;;15.73;;
75766;SDS011;64378;55.596;13.014;2022-12-18T00:03:41;29.45;;;15.30;;
75766;SDS011;64378;55.596;13.014;2022-12-18T00:06:07;24.90;;;14.33;;
75766;SDS011;64378;55.596;13.014;2022-12-18T00:08:34;27.43;;;13.97;;
75766;SDS011;64378;55.596;13.014;2022-12-18T00:11:06;24.77;;;12.93;;
75766;SDS011;64378;55.596;13.014;2022-12-18T00:13:33;26.50;;;12.90;;
75766;SDS011;64378;55.596;13.014;2022-12-18T00:16:02;22.83;;;12.23;;
75766;SDS011;64378;55.596;13.014;2022-12-18T00:18:29;23.08;;;11.57;;
75766;SDS011;64378;55.596;13.014;2022-12-18T00:20:58;21.77;;;11.40;;
75766;SDS011;64378;55.596;13.014;2022-12-18T00:23:25;20.77;;;10.98;;
75766;SDS011;64378;55.596;13.014;2022-12-18T00:25:50;20.40;;;10.70;;
75766;SDS011;64378;55.596;13.014;2022-12-18T00:28:15;19.30;;;9.67;;
75766;SDS011;64378;55.596;13.014;2022-12-18T00:30:41;17.93;;;10.00;;
75766;SDS011;64378;55.596;13.014;2022-12-18T00:33:06;21.30;;;9.60;;
75766;SDS011;64378;55.596;13.014;2022-12-18T00:35:31;18.30;;;8.80;;
75766;SDS011;64378;55.596;13.014;2022-12-18T00:37:57;16.93;;;8.70;;
75766;SDS011;64378;55.596;13.014;2022-12-18T00:40:22;16.73;;;8.53;;
75766;SDS011;64378;55.596;13.014;2022-12-18T00:42:47;16.10;;;7.90;;
75766;SDS011;64378;55.596;13.014;2022-12-18T00:45:23;16.25;;;8.35;;
75766;SDS011;64378;55.596;13.014;2022-12-18T00:47:53;15.55;;;7.63;;
75766;SDS011;64378;55.596;13.014;2022-12-18T00:50:19;15.38;;;7.60;;
75766;SDS011;64378;55.596;13.014;2022-12-18T00:52:45;14.27;;;6.95;;
75766;SDS011;64378;55.596;13.014;2022-12-18T00:55:10;15.85;;;7.15;;
75766;SDS011;64378;55.596;13.014;2022-12-18T00:57:36;15.87;;;7.10;;
75766;SDS011;64378;55.596;13.014;2022-12-18T01:00:02;16.07;;;6.83;;
75766;SDS011;64378;55.596;13.014;2022-12-18T01:02:29;14.27;;;6.73;;
75766;SDS011;64378;55.596;13.014;2022-12-18T01:04:54;13.93;;;6.40;;
75766;SDS011;64378;55.596;13.014;2022-12-18T01:07:19;13.43;;;5.87;;
75766;SDS011;64378;55.596;13.014;2022-12-18T01:09:45;12.17;;;5.93;;
75766;SDS011;64378;55.596;13.014;2022-12-18T01:12:10;11.73;;;5.67;;
75766;SDS011;64378;55.596;13.014;2022-12-18T01:14:36;13.57;;;6.00;;
75766;SDS011;64378;55.596;13.014;2022-12-18T01:17:02;12.80;;;5.73;;
75766;SDS011;64378;55.596;13.014;2022-12-18T01:19:28;12.40;;;5.70;;
75766;SDS011;64378;55.596;13.014;2022-12-18T01:21:54;13.00;;;5.27;;
75766;SDS011;64378;55.596;13.014;2022-12-18T01:24:19;13.03;;;5.53;;
75766;SDS011;64378;55.596;13.014;2022-12-18T01:26:45;14.07;;;5.63;;
75766;SDS011;64378;55.596;13.014;2022-12-18T01:29:10;11.65;;;5.30;;
75766;SDS011;64378;55.596;13.014;2022-12-18T01:31:35;12.63;;;5.37;;
75766;SDS011;64378;55.596;13.014;2022-12-18T01:34:01;10.60;;;5.10;;
75766;SDS011;64378;55.596;13.014;2022-12-18T01:36:29;10.55;;;4.90;;
75766;SDS011;64378;55.596;13.014;2022-12-18T01:38:58;10.27;;;4.60;;
75766;SDS011;64378;55.596;13.014;2022-12-18T01:41:26;9.45;;;4.70;;
75766;SDS011;64378;55.596;13.014;2022-12-18T01:47:18;11.82;;;4.68;;
75766;SDS011;64378;55.596;13.014;2022-12-18T01:49:48;11.30;;;4.90;;
75766;SDS011;64378;55.596;13.014;2022-12-18T01:52:14;11.68;;;4.80;;
75766;SDS011;64378;55.596;13.014;2022-12-18T01:54:40;10.43;;;4.97;;
75766;SDS011;64378;55.596;13.014;2022-12-18T01:57:06;10.67;;;4.50;;
75766;SDS011;64378;55.596;13.014;2022-12-18T01:59:32;9.75;;;4.43;;
75766;SDS011;64378;55.596;13.014;2022-12-18T02:01:59;10.87;;;4.73;;
75766;SDS011;64378;55.596;13.014;2022-12-18T02:04:26;10.57;;;4.28;;
75766;SDS011;64378;55.596;13.014;2022-12-18T02:10:04;9.97;;;4.30;;
75766;SDS011;64378;55.596;13.014;2022-12-18T02:15:19;9.30;;;4.20;;
75766;SDS011;64378;55.596;13.014;2022-12-18T02:17:55;9.82;;;4.43;;
75766;SDS011;64378;55.596;13.014;2022-12-18T02:20:28;9.57;;;4.50;;
75766;SDS011;64378;55.596;13.014;2022-12-18T02:23:12;11.10;;;4.70;;
75766;SDS011;64378;55.596;13.014;2022-12-18T02:25:51;10.98;;;4.43;;
75766;SDS011;64378;55.596;13.014;2022-12-18T02:28:31;9.85;;;4.35;;
75766;SDS011;64378;55.596;13.014;2022-12-18T02:31:01;9.38;;;4.10;;
75766;SDS011;64378;55.596;13.014;2022-12-18T02:33:29;9.03;;;3.70;;
75766;SDS011;64378;55.596;13.014;2022-12-18T02:35:57;8.35;;;3.95;;
75766;SDS011;64378;55.596;13.014;2022-12-18T02:38:24;8.60;;;3.80;;
75766;SDS011;64378;55.596;13.014;2022-12-18T02:40:50;9.27;;;4.00;;
75766;SDS011;64378;55.596;13.014;2022-12-18T02:43:18;8.82;;;3.78;;
75766;SDS011;64378;55.596;13.014;2022-12-18T02:45:50;9.32;;;3.70;;
75766;SDS011;64378;55.596;13.014;2022-12-18T02:48:21;8.73;;;3.60;;
75766;SDS011;64378;55.596;13.014;2022-12-18T02:51:14;9.18;;;3.95;;
75766;SDS011;64378;55.596;13.014;2022-12-18T02:53:45;9.30;;;4.00;;
75766;SDS011;64378;55.596;13.014;2022-12-18T02:56:20;8.37;;;3.63;;
75766;SDS011;64378;55.596;13.014;2022-12-18T03:04:14;8.30;;;3.37;;
75766;SDS011;64378;55.596;13.014;2022-12-18T03:06:47;8.00;;;3.45;;
75766;SDS011;64378;55.596;13.014;2022-12-18T03:09:26;7.68;;;3.20;;
75766;SDS011;64378;55.596;13.014;2022-12-18T03:11:58;8.75;;;3.50;;
75766;SDS011;64378;55.596;13.014;2022-12-18T03:14:47;8.68;;;3.80;;
75766;SDS011;64378;55.596;13.014;2022-12-18T03:17:25;8.20;;;3.30;;
75766;SDS011;64378;55.596;13.014;2022-12-18T03:19:52;8.27;;;3.50;;
75766;SDS011;64378;55.596;13.014;2022-12-18T03:22:22;8.57;;;3.23;;
75766;SDS011;64378;55.596;13.014;2022-12-18T03:24:52;7.93;;;3.30;;
75766;SDS011;64378;55.596;13.014;2022-12-18T03:27:19;8.50;;;3.33;;
75766;SDS011;64378;55.596;13.014;2022-12-18T03:29:49;7.25;;;3.00;;
75766;SDS011;64378;55.596;13.014;2022-12-18T03:32:30;7.90;;;3.10;;
75766;SDS011;64378;55.596;13.014;2022-12-18T03:35:03;8.13;;;3.35;;
75766;SDS011;64378;55.596;13.014;2022-12-18T03:37:30;7.15;;;3.03;;
75766;SDS011;64378;55.596;13.014;2022-12-18T03:39:56;9.20;;;3.67;;
75766;SDS011;64378;55.596;13.014;2022-12-18T03:42:24;8.00;;;3.40;;
75766;SDS011;64378;55.596;13.014;2022-12-18T03:45:19;12.02;;;3.33;;
75766;SDS011;64378;55.596;13.014;2022-12-18T03:47:59;8.10;;;3.17;;
75766;SDS011;64378;55.596;13.014;2022-12-18T03:53:29;8.60;;;3.55;;
75766;SDS011;64378;55.596;13.014;2022-12-18T03:55:56;7.65;;;3.30;;
75766;SDS011;64378;55.596;13.014;2022-12-18T03:58:24;8.20;;;3.20;;
75766;SDS011;64378;55.596;13.014;2022-12-18T04:00:52;8.18;;;3.22;;
75766;SDS011;64378;55.596;13.014;2022-12-18T04:03:19;6.77;;;3.10;;
75766;SDS011;64378;55.596;13.014;2022-12-18T04:05:46;8.95;;;3.45;;
75766;SDS011;64378;55.596;13.014;2022-12-18T04:08:15;7.77;;;3.33;;
75766;SDS011;64378;55.596;13.014;2022-12-18T04:10:41;7.18;;;3.28;;
75766;SDS011;64378;55.596;13.014;2022-12-18T04:13:06;8.33;;;3.40;;
75766;SDS011;64378;55.596;13.014;2022-12-18T04:15:35;7.57;;;3.20;;
75766;SDS011;64378;55.596;13.014;2022-12-18T04:18:02;7.88;;;3.28;;
75766;SDS011;64378;55.596;13.014;2022-12-18T04:20:28;7.85;;;3.10;;
75766;SDS011;64378;55.596;13.014;2022-12-18T04:22:54;8.07;;;3.30;;
75766;SDS011;64378;55.596;13.014;2022-12-18T04:25:19;8.43;;;3.30;;
75766;SDS011;64378;55.596;13.014;2022-12-18T04:27:44;7.87;;;3.47;;
75766;SDS011;64378;55.596;13.014;2022-12-18T04:30:10;8.73;;;3.20;;
75766;SDS011;64378;55.596;13.014;2022-12-18T04:32:35;8.07;;;3.45;;
75766;SDS011;64378;55.596;13.014;2022-12-18T04:35:01;7.68;;;3.45;;
75766;SDS011;64378;55.596;13.014;2022-12-18T04:37:29;8.40;;;3.80;;
75766;SDS011;64378;55.596;13.014;2022-12-18T04:39:54;7.47;;;3.40;;
75766;SDS011;64378;55.596;13.014;2022-12-18T04:42:20;7.97;;;3.42;;
75766;SDS011;64378;55.596;13.014;2022-12-18T04:44:45;8.20;;;3.72;;
75766;SDS011;64378;55.596;13.014;2022-12-18T04:47:10;8.35;;;3.55;;
75766;SDS011;64378;55.596;13.014;2022-12-18T04:49:36;7.80;;;3.50;;
75766;SDS011;64378;55.596;13.014;2022-12-18T04:52:01;7.68;;;3.47;;
75766;SDS011;64378;55.596;13.014;2022-12-18T04:54:26;7.78;;;3.50;;
75766;SDS011;64378;55.596;13.014;2022-12-18T04:56:52;8.63;;;3.60;;
75766;SDS011;64378;55.596;13.014;2022-12-18T04:59:17;8.30;;;3.57;;
75766;SDS011;64378;55.596;13.014;2022-12-18T05:01:42;7.60;;;3.50;;
75766;SDS011;64378;55.596;13.014;2022-12-18T05:04:08;8.90;;;3.23;;
75766;SDS011;64378;55.596;13.014;2022-12-18T05:06:33;7.47;;;3.40;;
75766;SDS011;64378;55.596;13.014;2022-12-18T05:08:58;8.40;;;3.50;;
75766;SDS011;64378;55.596;13.014;2022-12-18T05:11:24;8.07;;;3.40;;
75766;SDS011;64378;55.596;13.014;2022-12-18T05:13:49;8.83;;;3.80;;
75766;SDS011;64378;55.596;13.014;2022-12-18T05:16:15;7.63;;;3.50;;
75766;SDS011;64378;55.596;13.014;2022-12-18T05:18:40;7.80;;;3.35;;
75766;SDS011;64378;55.596;13.014;2022-12-18T05:21:06;9.02;;;3.65;;
75766;SDS011;64378;55.596;13.014;2022-12-18T05:23:31;8.33;;;3.57;;
75766;SDS011;64378;55.596;13.014;2022-12-18T05:25:58;7.53;;;3.40;;
75766;SDS011;64378;55.596;13.014;2022-12-18T05:28:26;8.02;;;3.22;;
75766;SDS011;64378;55.596;13.014;2022-12-18T05:30:53;8.48;;;3.40;;
75766;SDS011;64378;55.596;13.014;2022-12-18T05:33:20;8.27;;;3.30;;
75766;SDS011;64378;55.596;13.014;2022-12-18T05:35:51;8.00;;;3.47;;
75766;SDS011;64378;55.596;13.014;2022-12-18T05:38:17;8.32;;;3.40;;
75766;SDS011;64378;55.596;13.014;2022-12-18T05:40:43;7.82;;;3.40;;
75766;SDS011;64378;55.596;13.014;2022-12-18T05:43:09;8.15;;;3.30;;
75766;SDS011;64378;55.596;13.014;2022-12-18T05:45:38;8.30;;;3.43;;
75766;SDS011;64378;55.596;13.014;2022-12-18T05:48:04;8.68;;;3.40;;
75766;SDS011;64378;55.596;13.014;2022-12-18T05:50:30;7.00;;;3.20;;
75766;SDS011;64378;55.596;13.014;2022-12-18T05:52:55;8.27;;;3.50;;
75766;SDS011;64378;55.596;13.014;2022-12-18T05:55:20;7.73;;;3.40;;
75766;SDS011;64378;55.596;13.014;2022-12-18T05:57:46;8.40;;;3.30;;
75766;SDS011;64378;55.596;13.014;2022-12-18T06:00:11;7.47;;;3.30;;
75766;SDS011;64378;55.596;13.014;2022-12-18T06:02:37;7.93;;;3.50;;
75766;SDS011;64378;55.596;13.014;2022-12-18T06:05:02;8.77;;;3.45;;
75766;SDS011;64378;55.596;13.014;2022-12-18T06:07:28;8.00;;;3.53;;
75766;SDS011;64378;55.596;13.014;2022-12-18T06:09:53;8.33;;;3.60;;
75766;SDS011;64378;55.596;13.014;2022-12-18T06:12:19;8.40;;;3.33;;
75766;SDS011;64378;55.596;13.014;2022-12-18T06:14:44;8.00;;;3.20;;
75766;SDS011;64378;55.596;13.014;2022-12-18T06:17:09;8.03;;;3.30;;
75766;SDS011;64378;55.596;13.014;2022-12-18T06:19:35;8.73;;;3.83;;
75766;SDS011;64378;55.596;13.014;2022-12-18T06:22:00;7.13;;;3.10;;
75766;SDS011;64378;55.596;13.014;2022-12-18T06:24:26;9.50;;;3.40;;
75766;SDS011;64378;55.596;13.014;2022-12-18T06:26:51;8.43;;;3.40;;
75766;SDS011;64378;55.596;13.014;2022-12-18T06:29:16;7.23;;;3.27;;
75766;SDS011;64378;55.596;13.014;2022-12-18T06:31:41;7.83;;;3.30;;
75766;SDS011;64378;55.596;13.014;2022-12-18T06:34:07;7.60;;;3.20;;
75766;SDS011;64378;55.596;13.014;2022-12-18T06:36:32;8.10;;;3.70;;
75766;SDS011;64378;55.596;13.014;2022-12-18T06:38:58;8.00;;;2.90;;
75766;SDS011;64378;55.596;13.014;2022-12-18T06:41:23;8.10;;;3.50;;
75766;SDS011;64378;55.596;13.014;2022-12-18T06:43:49;7.80;;;3.00;;
75766;SDS011;64378;55.596;13.014;2022-12-18T06:46:14;7.87;;;3.33;;
75766;SDS011;64378;55.596;13.014;2022-12-18T06:48:40;8.68;;;3.47;;
75766;SDS011;64378;55.596;13.014;2022-12-18T06:51:05;7.43;;;3.30;;
75766;SDS011;64378;55.596;13.014;2022-12-18T06:53:32;8.40;;;3.23;;
75766;SDS011;64378;55.596;13.014;2022-12-18T06:56:01;7.50;;;3.35;;
75766;SDS011;64378;55.596;13.014;2022-12-18T06:58:27;8.65;;;3.42;;
75766;SDS011;64378;55.596;13.014;2022-12-18T07:00:53;9.07;;;3.33;;
75766;SDS011;64378;55.596;13.014;2022-12-18T07:03:18;7.37;;;3.10;;
75766;SDS011;64378;55.596;13.014;2022-12-18T07:05:43;9.23;;;3.40;;
75766;SDS011;64378;55.596;13.014;2022-12-18T07:08:09;8.20;;;3.20;;
75766;SDS011;64378;55.596;13.014;2022-12-18T07:10:40;7.50;;;3.30;;
75766;SDS011;64378;55.596;13.014;2022-12-18T07:13:06;7.90;;;3.23;;
75766;SDS011;64378;55.596;13.014;2022-12-18T07:15:31;8.00;;;3.50;;
75766;SDS011;64378;55.596;13.014;2022-12-18T07:17:57;8.10;;;3.58;;
75766;SDS011;64378;55.596;13.014;2022-12-18T07:20:22;7.40;;;2.90;;
75766;SDS011;64378;55.596;13.014;2022-12-18T07:22:47;8.07;;;3.38;;
75766;SDS011;64378;55.596;13.014;2022-12-18T07:25:13;8.35;;;3.50;;
75766;SDS011;64378;55.596;13.014;2022-12-18T07:27:38;9.07;;;3.23;;
75766;SDS011;64378;55.596;13.014;2022-12-18T07:30:03;9.20;;;3.53;;
75766;SDS011;64378;55.596;13.014;2022-12-18T07:32:29;9.23;;;3.40;;
75766;SDS011;64378;55.596;13.014;2022-12-18T07:34:55;8.27;;;3.30;;
75766;SDS011;64378;55.596;13.014;2022-12-18T07:37:20;7.30;;;3.23;;
75766;SDS011;64378;55.596;13.014;2022-12-18T07:39:46;7.20;;;3.17;;
75766;SDS011;64378;55.596;13.014;2022-12-18T07:42:11;7.37;;;3.00;;
75766;SDS011;64378;55.596;13.014;2022-12-18T07:44:55;7.35;;;3.00;;
75766;SDS011;64378;55.596;13.014;2022-12-18T07:47:21;7.47;;;2.92;;
75766;SDS011;64378;55.596;13.014;2022-12-18T07:49:46;6.73;;;2.80;;
75766;SDS011;64378;55.596;13.014;2022-12-18T07:52:12;7.17;;;2.93;;
75766;SDS011;64378;55.596;13.014;2022-12-18T07:54:37;7.40;;;3.00;;
75766;SDS011;64378;55.596;13.014;2022-12-18T07:57:03;7.40;;;2.90;;
75766;SDS011;64378;55.596;13.014;2022-12-18T07:59:28;8.03;;;2.87;;
75766;SDS011;64378;55.596;13.014;2022-12-18T08:01:54;7.60;;;3.20;;
75766;SDS011;64378;55.596;13.014;2022-12-18T08:04:19;8.20;;;3.10;;
75766;SDS011;64378;55.596;13.014;2022-12-18T08:06:44;7.53;;;3.33;;
75766;SDS011;64378;55.596;13.014;2022-12-18T08:09:10;7.60;;;2.93;;
75766;SDS011;64378;55.596;13.014;2022-12-18T08:11:35;7.53;;;2.70;;
75766;SDS011;64378;55.596;13.014;2022-12-18T08:14:01;8.43;;;3.70;;
75766;SDS011;64378;55.596;13.014;2022-12-18T08:16:26;7.85;;;3.38;;
75766;SDS011;64378;55.596;13.014;2022-12-18T08:18:52;8.45;;;3.38;;
75766;SDS011;64378;55.596;13.014;2022-12-18T08:21:20;6.55;;;2.60;;
75766;SDS011;64378;55.596;13.014;2022-12-18T08:23:48;8.15;;;3.22;;
75766;SDS011;64378;55.596;13.014;2022-12-18T08:26:15;6.68;;;2.83;;
75766;SDS011;64378;55.596;13.014;2022-12-18T08:28:41;8.23;;;3.10;;
75766;SDS011;64378;55.596;13.014;2022-12-18T08:31:06;7.40;;;2.92;;
75766;SDS011;64378;55.596;13.014;2022-12-18T08:33:32;7.50;;;2.80;;
75766;SDS011;64378;55.596;13.014;2022-12-18T08:35:59;7.97;;;3.10;;
75766;SDS011;64378;55.596;13.014;2022-12-18T08:38:25;8.17;;;2.97;;
75766;SDS011;64378;55.596;13.014;2022-12-18T08:40:58;7.00;;;2.60;;
75766;SDS011;64378;55.596;13.014;2022-12-18T08:43:25;7.20;;;2.78;;
75766;SDS011;64378;55.596;13.014;2022-12-18T08:46:09;8.98;;;3.15;;
75766;SDS011;64378;55.596;13.014;2022-12-18T08:48:34;8.00;;;2.93;;
75766;SDS011;64378;55.596;13.014;2022-12-18T08:51:00;6.82;;;2.80;;
75766;SDS011;64378;55.596;13.014;2022-12-18T08:53:26;8.00;;;3.00;;
75766;SDS011;64378;55.596;13.014;2022-12-18T08:55:52;7.05;;;2.92;;
75766;SDS011;64378;55.596;13.014;2022-12-18T08:58:18;7.07;;;2.97;;
75766;SDS011;64378;55.596;13.014;2022-12-18T09:00:43;7.07;;;2.97;;
75766;SDS011;64378;55.596;13.014;2022-12-18T09:03:16;6.73;;;2.53;;
75766;SDS011;64378;55.596;13.014;2022-12-18T09:05:42;6.87;;;3.10;;
75766;SDS011;64378;55.596;13.014;2022-12-18T09:08:10;6.50;;;2.60;;
75766;SDS011;64378;55.596;13.014;2022-12-18T09:10:41;6.55;;;2.60;;
75766;SDS011;64378;55.596;13.014;2022-12-18T09:13:10;7.27;;;2.90;;
75766;SDS011;64378;55.596;13.014;2022-12-18T09:15:47;6.28;;;2.50;;
75766;SDS011;64378;55.596;13.014;2022-12-18T09:18:14;7.07;;;2.83;;
75766;SDS011;64378;55.596;13.014;2022-12-18T09:20:41;7.80;;;3.13;;
75766;SDS011;64378;55.596;13.014;2022-12-18T09:23:07;8.15;;;2.80;;
75766;SDS011;64378;55.596;13.014;2022-12-18T09:25:34;7.22;;;2.90;;
75766;SDS011;64378;55.596;13.014;2022-12-18T09:28:01;8.15;;;3.00;;
75766;SDS011;64378;55.596;13.014;2022-12-18T09:30:27;8.18;;;2.90;;
75766;SDS011;64378;55.596;13.014;2022-12-18T09:32:53;7.07;;;2.50;;
75766;SDS011;64378;55.596;13.014;2022-12-18T09:35:18;7.63;;;2.60;;
75766;SDS011;64378;55.596;13.014;2022-12-18T09:37:43;9.77;;;2.97;;
75766;SDS011;64378;55.596;13.014;2022-12-18T09:40:19;7.77;;;2.70;;
75766;SDS011;64378;55.596;13.014;2022-12-18T09:43:00;7.72;;;2.70;;
75766;SDS011;64378;55.596;13.014;2022-12-18T09:45:30;9.30;;;3.20;;
75766;SDS011;64378;55.596;13.014;2022-12-18T09:48:05;9.30;;;2.63;;
75766;SDS011;64378;55.596;13.014;2022-12-18T09:50:43;9.50;;;3.10;;
75766;SDS011;64378;55.596;13.014;2022-12-18T09:53:12;8.48;;;3.17;;
75766;SDS011;64378;55.596;13.014;2022-12-18T09:55:51;8.90;;;3.40;;
75766;SDS011;64378;55.596;13.014;2022-12-18T10:00:52;9.07;;;3.67;;
75766;SDS011;64378;55.596;13.014;2022-12-18T10:03:18;9.85;;;4.18;;
75766;SDS011;64378;55.596;13.014;2022-12-18T10:08:21;11.90;;;4.18;;
75766;SDS011;64378;55.596;13.014;2022-12-18T10:10:49;10.93;;;4.47;;
75766;SDS011;64378;55.596;13.014;2022-12-18T10:13:41;11.30;;;4.38;;
75766;SDS011;64378;55.596;13.014;2022-12-18T10:18:56;10.52;;;4.32;;
75766;SDS011;64378;55.596;13.014;2022-12-18T10:27:11;10.88;;;4.30;;
75766;SDS011;64378;55.596;13.014;2022-12-18T10:29:45;11.27;;;4.10;;
75766;SDS011;64378;55.596;13.014;2022-12-18T10:32:14;10.05;;;4.38;;
75766;SDS011;64378;55.596;13.014;2022-12-18T10:34:49;9.80;;;4.10;;
75766;SDS011;64378;55.596;13.014;2022-12-18T10:37:18;8.75;;;3.58;;
75766;SDS011;64378;55.596;13.014;2022-12-18T10:39:45;8.52;;;3.95;;
75766;SDS011;64378;55.596;13.014;2022-12-18T10:42:18;10.60;;;3.83;;
75766;SDS011;64378;55.596;13.014;2022-12-18T10:44:44;11.25;;;4.18;;
75766;SDS011;64378;55.596;13.014;2022-12-18T10:47:19;9.00;;;3.80;;
75766;SDS011;64378;55.596;13.014;2022-12-18T10:49:49;11.43;;;3.70;;
75766;SDS011;64378;55.596;13.014;2022-12-18T10:52:19;10.35;;;3.90;;
75766;SDS011;64378;55.596;13.014;2022-12-18T10:55:01;10.30;;;3.78;;
75766;SDS011;64378;55.596;13.014;2022-12-18T10:57:35;9.63;;;3.60;;
75766;SDS011;64378;55.596;13.014;2022-12-18T11:00:26;9.50;;;3.53;;
75766;SDS011;64378;55.596;13.014;2022-12-18T11:02:56;9.40;;;3.67;;
75766;SDS011;64378;55.596;13.014;2022-12-18T11:05:32;9.30;;;3.83;;
75766;SDS011;64378;55.596;13.014;2022-12-18T11:07:59;9.52;;;3.63;;
75766;SDS011;64378;55.596;13.014;2022-12-18T11:10:28;8.77;;;3.45;;
75766;SDS011;64378;55.596;13.014;2022-12-18T11:12:56;9.27;;;3.60;;
75766;SDS011;64378;55.596;13.014;2022-12-18T11:15:45;10.03;;;3.93;;
75766;SDS011;64378;55.596;13.014;2022-12-18T11:18:22;10.48;;;3.90;;
75766;SDS011;64378;55.596;13.014;2022-12-18T11:20:52;9.48;;;3.50;;
75766;SDS011;64378;55.596;13.014;2022-12-18T11:23:46;10.20;;;3.67;;
75766;SDS011;64378;55.596;13.014;2022-12-18T11:26:16;10.43;;;3.47;;
75766;SDS011;64378;55.596;13.014;2022-12-18T11:28:52;9.98;;;3.80;;
75766;SDS011;64378;55.596;13.014;2022-12-18T11:31:32;8.88;;;3.40;;
75766;SDS011;64378;55.596;13.014;2022-12-18T11:34:02;9.20;;;3.53;;
75766;SDS011;64378;55.596;13.014;2022-12-18T11:36:46;9.27;;;3.70;;
75766;SDS011;64378;55.596;13.014;2022-12-18T11:42:04;8.18;;;3.40;;
75766;SDS011;64378;55.596;13.014;2022-12-18T11:50:18;9.73;;;3.55;;
75766;SDS011;64378;55.596;13.014;2022-12-18T11:52:47;9.48;;;3.50;;
75766;SDS011;64378;55.596;13.014;2022-12-18T11:55:16;8.47;;;3.37;;
75766;SDS011;64378;55.596;13.014;2022-12-18T12:00:18;8.33;;;3.23;;
75766;SDS011;64378;55.596;13.014;2022-12-18T12:08:47;7.75;;;3.30;;
75766;SDS011;64378;55.596;13.014;2022-12-18T12:14:13;8.02;;;3.20;;
75766;SDS011;64378;55.596;13.014;2022-12-18T12:17:04;7.05;;;3.00;;
75766;SDS011;64378;55.596;13.014;2022-12-18T12:25:14;9.13;;;3.25;;
75766;SDS011;64378;55.596;13.014;2022-12-18T12:36:12;7.32;;;3.00;;
75766;SDS011;64378;55.596;13.014;2022-12-18T12:38:46;7.70;;;2.92;;
75766;SDS011;64378;55.596;13.014;2022-12-18T12:41:17;8.38;;;3.20;;
75766;SDS011;64378;55.596;13.014;2022-12-18T12:44:06;8.43;;;3.30;;
75766;SDS011;64378;55.596;13.014;2022-12-18T12:46:39;7.47;;;2.80;;
75766;SDS011;64378;55.596;13.014;2022-12-18T12:49:26;7.27;;;2.70;;
75766;SDS011;64378;55.596;13.014;2022-12-18T12:52:03;7.78;;;3.05;;
75766;SDS011;64378;55.596;13.014;2022-12-18T12:54:32;9.13;;;3.00;;
75766;SDS011;64378;55.596;13.014;2022-12-18T12:57:05;7.30;;;2.97;;
75766;SDS011;64378;55.596;13.014;2022-12-18T12:59:59;7.45;;;2.58;;
75766;SDS011;64378;55.596;13.014;2022-12-18T13:08:27;7.05;;;2.72;;
75766;SDS011;64378;55.596;13.014;2022-12-18T13:10:55;8.02;;;2.60;;
75766;SDS011;64378;55.596;13.014;2022-12-18T13:13:48;7.22;;;2.90;;
75766;SDS011;64378;55.596;13.014;2022-12-18T13:16:13;7.53;;;3.30;;
75766;SDS011;64378;55.596;13.014;2022-12-18T13:18:48;7.30;;;2.97;;
75766;SDS011;64378;55.596;13.014;2022-12-18T13:21:25;7.95;;;2.95;;
75766;SDS011;64378;55.596;13.014;2022-12-18T13:23:53;6.70;;;2.60;;
75766;SDS011;64378;55.596;13.014;2022-12-18T13:28:50;8.25;;;2.75;;
75766;SDS011;64378;55.596;13.014;2022-12-18T13:34:09;7.77;;;3.00;;
75766;SDS011;64378;55.596;13.014;2022-12-18T13:36:41;7.70;;;2.75;;
75766;SDS011;64378;55.596;13.014;2022-12-18T13:41:41;6.50;;;2.70;;
75766;SDS011;64378;55.596;13.014;2022-12-18T13:44:11;7.78;;;2.72;;
75766;SDS011;64378;55.596;13.014;2022-12-18T13:46:56;7.68;;;2.75;;
75766;SDS011;64378;55.596;13.014;2022-12-18T13:49:41;7.20;;;2.73;;
75766;SDS011;64378;55.596;13.014;2022-12-18T13:52:16;7.10;;;2.90;;
75766;SDS011;64378;55.596;13.014;2022-12-18T13:54:54;7.10;;;2.80;;
75766;SDS011;64378;55.596;13.014;2022-12-18T13:59:50;7.30;;;2.80;;
75766;SDS011;64378;55.596;13.014;2022-12-18T14:02:17;6.93;;;2.70;;
75766;SDS011;64378;55.596;13.014;2022-12-18T14:04:46;7.22;;;2.70;;
75766;SDS011;64378;55.596;13.014;2022-12-18T14:07:13;7.57;;;2.70;;
75766;SDS011;64378;55.596;13.014;2022-12-18T14:09:43;7.43;;;2.80;;
75766;SDS011;64378;55.596;13.014;2022-12-18T14:12:16;8.15;;;2.60;;
75766;SDS011;64378;55.596;13.014;2022-12-18T14:15:05;6.33;;;2.33;;
75766;SDS011;64378;55.596;13.014;2022-12-18T14:17:39;7.43;;;2.70;;
75766;SDS011;64378;55.596;13.014;2022-12-18T14:20:04;7.20;;;2.83;;
75766;SDS011;64378;55.596;13.014;2022-12-18T14:22:39;7.43;;;2.80;;
75766;SDS011;64378;55.596;13.014;2022-12-18T14:27:37;7.15;;;2.55;;
75766;SDS011;64378;55.596;13.014;2022-12-18T14:33:12;6.90;;;2.58;;
75766;SDS011;64378;55.596;13.014;2022-12-18T14:35:43;7.10;;;2.63;;
75766;SDS011;64378;55.596;13.014;2022-12-18T14:38:27;6.32;;;2.50;;
75766;SDS011;64378;55.596;13.014;2022-12-18T14:41:01;7.87;;;2.93;;
75766;SDS011;64378;55.596;13.014;2022-12-18T14:43:33;6.70;;;2.50;;
75766;SDS011;64378;55.596;13.014;2022-12-18T14:46:00;6.73;;;2.43;;
75766;SDS011;64378;55.596;13.014;2022-12-18T14:48:37;6.47;;;2.40;;
75766;SDS011;64378;55.596;13.014;2022-12-18T14:51:06;6.20;;;2.50;;
75766;SDS011;64378;55.596;13.014;2022-12-18T14:53:36;7.05;;;2.50;;
75766;SDS011;64378;55.596;13.014;2022-12-18T14:56:10;6.30;;;2.58;;
75766;SDS011;64378;55.596;13.014;2022-12-18T14:58:44;6.28;;;2.47;;
75766;SDS011;64378;55.596;13.014;2022-12-18T15:01:17;6.43;;;2.30;;
75766;SDS011;64378;55.596;13.014;2022-12-18T15:03:44;6.15;;;2.47;;
75766;SDS011;64378;55.596;13.014;2022-12-18T15:06:16;5.77;;;2.17;;
75766;SDS011;64378;55.596;13.014;2022-12-18T15:08:48;8.00;;;2.40;;
75766;SDS011;64378;55.596;13.014;2022-12-18T15:11:27;6.45;;;2.50;;
75766;SDS011;64378;55.596;13.014;2022-12-18T15:14:23;7.13;;;2.60;;
75766;SDS011;64378;55.596;13.014;2022-12-18T15:16:51;6.55;;;2.40;;
75766;SDS011;64378;55.596;13.014;2022-12-18T15:19:21;6.85;;;2.80;;
75766;SDS011;64378;55.596;13.014;2022-12-18T15:21:50;5.67;;;2.13;;
75766;SDS011;64378;55.596;13.014;2022-12-18T15:24:24;5.78;;;2.10;;
75766;SDS011;64378;55.596;13.014;2022-12-18T15:26:54;5.60;;;2.20;;
75766;SDS011;64378;55.596;13.014;2022-12-18T15:29:20;5.93;;;2.28;;
75766;SDS011;64378;55.596;13.014;2022-12-18T15:32:00;6.40;;;2.50;;
75766;SDS011;64378;55.596;13.014;2022-12-18T15:34:27;6.53;;;2.35;;
75766;SDS011;64378;55.596;13.014;2022-12-18T15:36:53;7.00;;;2.43;;
75766;SDS011;64378;55.596;13.014;2022-12-18T15:39:19;7.20;;;2.67;;
75766;SDS011;64378;55.596;13.014;2022-12-18T15:41:44;6.50;;;2.30;;
75766;SDS011;64378;55.596;13.014;2022-12-18T15:44:30;6.45;;;2.20;;
75766;SDS011;64378;55.596;13.014;2022-12-18T15:46:55;6.10;;;2.00;;
75766;SDS011;64378;55.596;13.014;2022-12-18T15:49:21;6.47;;;2.42;;
75766;SDS011;64378;55.596;13.014;2022-12-18T15:51:49;6.40;;;2.37;;
75766;SDS011;64378;55.596;13.014;2022-12-18T15:54:21;6.00;;;2.35;;
75766;SDS011;64378;55.596;13.014;2022-12-18T15:57:10;5.77;;;2.13;;
75766;SDS011;64378;55.596;13.014;2022-12-18T15:59:48;6.47;;;2.30;;
75766;SDS011;64378;55.596;13.014;2022-12-18T16:02:14;6.13;;;2.20;;
75766;SDS011;64378;55.596;13.014;2022-12-18T16:04:42;6.78;;;2.35;;
75766;SDS011;64378;55.596;13.014;2022-12-18T16:07:08;7.43;;;2.60;;
75766;SDS011;64378;55.596;13.014;2022-12-18T16:09:34;6.63;;;2.50;;
75766;SDS011;64378;55.596;13.014;2022-12-18T16:11:59;5.90;;;2.30;;